CCGS Louis S. St-Laurent — CGBN — position and weather

sailwx.info

Track history (hours):
 
Tides and Currents Weather Stations Pressure Air Temp Water Temp Dewpoint Dewpoint Depression Visibility Wind Speed Wind Dir Waves Ship Positions

Oceanographic research ship CCGS Louis S. St-Laurent (Canada)

Detailed information on ship capabilities available from ARCUS's ALIAS (Arctic Logistics Information and Support) project.

Last reported at 2017-Jan-19 20:00 UTC. Time now 2017-Jan-19 21:25 UTC.
Position N 47°36' W 052°42'.

Length 119.63 m; beam 24.38 m; draft 9.9 m.

MMSI: 316165000.

Wind from 100 at 1 knots

Barometer 1019.8 mb
Air temperature -1.0 ° C
Dewpoint -5.0 ° C

Date/timePositionNaut miles runAvg speedWind from/ knotsBaromVisibWave heightAir tempDewpointWater temp
2017-Jan-19 20:00N 47°36' W 052°42'0 0.0 100 / 11019.8 -1.0-5.0
2017-Jan-19 19:00N 47°36' W 052°42'0 0.0 110 / 51020.0 -1.8-5.8
2017-Jan-19 18:00N 47°36' W 052°42'0 0.0 120 / 41019.8 -1.8-5.9
2017-Jan-19 17:00N 47°36' W 052°42'0 0.0 110 / 51020.1 -1.9-5.9
2017-Jan-19 16:00N 47°36' W 052°42'0 0.0 180 / 21020.3 -0.0-6.0
2017-Jan-19 15:00N 47°36' W 052°42'0 0.0 070 / 11021.0 -1.5-5.5
2017-Jan-19 14:00N 47°36' W 052°42'0 0.0 190 / 11021.7 -3.0-6.1
2017-Jan-19 13:00N 47°36' W 052°42'0 0.0 1021.7 -5.7-7.3
2017-Jan-19 12:00N 47°36' W 052°42'0 0.0 1021.7 -5.6-7.2
2017-Jan-19 11:00N 47°36' W 052°42'0 0.0 090 / 11021.4 -5.2-6.4
2017-Jan-19 10:00N 47°36' W 052°42'0 0.0 270 / 11021.1 -4.2-6.0
2017-Jan-19 09:00N 47°36' W 052°42'0 0.0 1020.8 -3.3-5.3
2017-Jan-19 08:00N 47°36' W 052°42'0 0.0 320 / 41021.0 -3.2-5.2
2017-Jan-19 07:00N 47°36' W 052°42'0 0.0 320 / 31020.9 -2.9-4.9
2017-Jan-19 06:00N 47°36' W 052°42'0 0.0 310 / 41020.5 -2.7-4.8
2017-Jan-19 05:00N 47°36' W 052°42'0 0.0 310 / 41020.3 -2.4-4.7
2017-Jan-19 04:00N 47°36' W 052°42'0 0.0 310 / 41020.3 -2.2-4.3
2017-Jan-19 03:00N 47°36' W 052°42'0 0.0 310 / 31020.3 -2.0-4.2
2017-Jan-19 02:00N 47°36' W 052°42'0 0.0 310 / 31020.5 -1.9-4.1
2017-Jan-19 01:00N 47°36' W 052°42'0 0.0 340 / 41020.4 -1.5-3.8
2017-Jan-19 00:00N 47°36' W 052°42'0 0.0 340 / 51020.2 -1.1-3.6
2017-Jan-18 23:00N 47°36' W 052°42'0 0.0 360 / 31019.7 -0.8-3.8
2017-Jan-18 22:00N 47°36' W 052°42'0 0.0 350 / 41019.2 -0.7-4.1
2017-Jan-18 21:00N 47°36' W 052°42'0 0.0 330 / 61019.0 -1.2-3.5
2017-Jan-18 20:00N 47°36' W 052°42'0 0.0 360 / 41018.6 -0.8-4.2
2017-Jan-18 18:00N 47°36' W 052°42'0 0.0 010 / 51017.0 -0.0-4.0
2017-Jan-18 17:00N 47°36' W 052°42'0 0.0 360 / 51016.3 0.1-3.1
2017-Jan-18 16:00N 47°36' W 052°42'0 0.0 360 / 61015.9 0.3-3.2
2017-Jan-18 15:00N 47°36' W 052°42'0 0.0 350 / 51015.2 0.2-2.2
2017-Jan-18 14:00N 47°36' W 052°42'0 0.0 360 / 51015.3 -1.0-1.9
2017-Jan-18 13:00N 47°36' W 052°42'0 0.0 030 / 21015.0 -1.2-2.7
2017-Jan-18 12:00N 47°36' W 052°42'0 0.0 090 / 41013.5 -1.9-2.8
2017-Jan-18 11:00N 47°36' W 052°42'0 0.0 300 / 21011.7 -2.9-3.9
2017-Jan-18 10:00N 47°36' W 052°42'0 0.0 270 / 41010.7 -3.5-6.4
2017-Jan-18 09:00N 47°36' W 052°42'0 0.0 320 / 61010.2 -3.1-6.2
2017-Jan-18 08:00N 47°36' W 052°42'0 0.0 290 / 41009.8 -3.7-6.0
2017-Jan-18 07:00N 47°36' W 052°42'0 0.0 320 / 41009.4 -4.0-6.0
2017-Jan-18 06:00N 47°36' W 052°42'0 0.0 300 / 51008.6 -4.2-6.1
2017-Jan-18 05:00N 47°36' W 052°42'0 0.0 310 / 51007.9 -3.9-5.7
2017-Jan-18 04:00N 47°36' W 052°42'0 0.0 270 / 31008.0 -4.3-6.0
2017-Jan-18 03:00N 47°36' W 052°42'0 0.0 280 / 41008.4 -5.2-7.0
2017-Jan-18 02:00N 47°36' W 052°42'0 0.0 260 / 31008.6 -5.8-7.9
2017-Jan-18 01:00N 47°36' W 052°42'0 0.0 260 / 41008.7 -5.6-8.1
2017-Jan-18 00:00N 47°36' W 052°42'0 0.0 260 / 41008.7 -5.0-7.0
2017-Jan-17 23:00N 47°36' W 052°42'0 0.0 250 / 41008.8 -5.1-7.9
2017-Jan-17 22:00N 47°36' W 052°42'0 0.0 270 / 41008.4 -4.4-8.4
2017-Jan-17 21:00N 47°36' W 052°42'0 0.0 280 / 41008.2 -3.1-7.3
2017-Jan-17 20:00N 47°36' W 052°42'0 0.0 280 / 41007.7 -2.0-5.0
2017-Jan-17 19:00N 47°36' W 052°42'0 0.0 310 / 41007.3 -1.4-3.7
2017-Jan-17 18:00N 47°36' W 052°42'0 0.0 270 / 61007.0 -0.7-3.1
2017-Jan-17 17:00N 47°36' W 052°42'0 0.0 260 / 81007.1 -0.0-3.8
2017-Jan-17 16:00N 47°36' W 052°42'0 0.0 220 / 51007.7 -0.0-2.7
2017-Jan-17 15:00N 47°36' W 052°42'0 0.0 200 / 41008.7 -1.3-2.1
2017-Jan-17 14:00N 47°36' W 052°42'0 0.0 140 / 11009.2 -0.6-2.0
2017-Jan-17 13:00N 47°36' W 052°42'0 0.0 180 / 21010.6 -1.6-3.2
2017-Jan-17 12:00N 47°36' W 052°42'0 0.0 200 / 21011.9 -2.2-4.5
2017-Jan-17 11:00N 47°36' W 052°42'0 0.0 210 / 11013.0 -3.0-5.5
2017-Jan-17 10:00N 47°36' W 052°42'0 0.0 210 / 21014.2 -3.8-6.1
2017-Jan-17 09:00N 47°36' W 052°42'0 0.0 210 / 11015.6 -5.1-7.5
2017-Jan-17 08:00N 47°36' W 052°42'0 0.0 210 / 11016.3 -6.1-8.3
2017-Jan-17 07:00N 47°36' W 052°42'0 0.0 240 / 11017.9 -10.0-12.4
2017-Jan-17 06:00N 47°36' W 052°42'0 0.0 200 / 21018.8 -12.2-15.1
2017-Jan-17 05:00N 47°36' W 052°42'0 0.0 200 / 31019.8 -12.5-15.0
2017-Jan-17 03:00N 47°36' W 052°42'0 0.0 230 / 61021.4 -12.5-15.8
2017-Jan-17 02:00N 47°36' W 052°42'0 0.0 220 / 31022.0 -12.8-15.4
2017-Jan-17 01:00N 47°36' W 052°42'0 0.0 240 / 51022.3 -12.0-14.5
2017-Jan-17 00:00N 47°36' W 052°42'0 0.0 190 / 41022.5 -10.1-12.6
2017-Jan-16 23:00N 47°36' W 052°42'0 0.0 280 / 31022.8 -9.7-14.0
2017-Jan-16 22:00N 47°36' W 052°42'0 0.0 270 / 51022.9 -9.4-13.4
2017-Jan-16 21:00N 47°36' W 052°42'0 0.0 290 / 41022.9 -9.4-13.3
2017-Jan-16 20:00N 47°36' W 052°42'0 0.0 280 / 51022.5 -9.1-13.3
2017-Jan-16 19:00N 47°36' W 052°42'0 0.0 310 / 71021.5 -8.7-13.5
2017-Jan-16 18:00N 47°36' W 052°42'0 0.0 330 / 91021.0 -8.5-13.1
2017-Jan-16 17:00N 47°36' W 052°42'0 0.0 310 / 81020.4 -8.5-12.5
2017-Jan-16 16:00N 47°36' W 052°42'0 0.0 320 / 81020.5 -8.4-12.7
2017-Jan-16 15:00N 47°36' W 052°42'0 0.0 320 / 101020.4 -8.4-12.1
2017-Jan-16 14:00N 47°36' W 052°42'0 0.0 320 / 81020.3 -8.1-12.3
2017-Jan-16 13:00N 47°36' W 052°42'0 0.0 320 / 81019.6 -8.5-11.9
2017-Jan-16 12:00N 47°36' W 052°42'0 0.0 320 / 91019.0 -8.5-11.6
2017-Jan-16 11:00N 47°36' W 052°42'0 0.0 320 / 81017.9 -8.2-11.2
2017-Jan-16 10:00N 47°36' W 052°42'0 0.0 310 / 101016.6 -7.5-10.0
2017-Jan-16 09:00N 47°36' W 052°42'0 0.0 320 / 111015.1 -6.5-8.0
2017-Jan-16 08:00N 47°36' W 052°42'0 0.0 320 / 131014.0 -5.6-6.8
2017-Jan-16 07:00N 47°36' W 052°42'0 0.0 320 / 111012.7 -5.9-6.4
2017-Jan-16 06:00N 47°36' W 052°42'0 0.0 330 / 141011.5 -5.6-6.0
2017-Jan-16 05:00N 47°36' W 052°42'0 0.0 340 / 111010.1 -4.6-4.9
2017-Jan-16 04:00N 47°36' W 052°42'0 0.0 060 / 21010.1 -3.8-4.0
2017-Jan-16 03:00N 47°36' W 052°42'0 0.0 080 / 41011.2 -3.0-3.2
2017-Jan-16 02:00N 47°36' W 052°42'0 0.0 070 / 31012.4 -3.4-3.8
2017-Jan-16 01:00N 47°36' W 052°42'0 0.0 030 / 31013.2 -4.1-5.1
2017-Jan-16 00:00N 47°36' W 052°42'0 0.0 360 / 31014.7 -4.7-5.8
2017-Jan-15 23:00N 47°36' W 052°42'0 0.0 240 / 11015.6 -4.6-6.0
2017-Jan-15 22:00N 47°36' W 052°42'0 0.0 240 / 21016.1 -4.5-6.6
2017-Jan-15 21:00N 47°36' W 052°42'0 0.0 200 / 11016.4 -4.1-6.7
2017-Jan-15 20:00N 47°36' W 052°42'0 0.0 200 / 31016.3 -3.7-6.7
2017-Jan-15 19:00N 47°36' W 052°42'0 0.0 190 / 31016.6 -4.0-6.9
2017-Jan-15 18:00N 47°36' W 052°42'0 0.0 220 / 71016.6 -3.9-8.8
2017-Jan-15 17:00N 47°36' W 052°42'0 0.0 190 / 61016.8 -3.8-7.8
2017-Jan-15 16:00N 47°36' W 052°42'0 0.0 210 / 31017.9 -4.8-8.0
2017-Jan-15 15:00N 47°36' W 052°42'0 0.0 130 / 21019.0 -5.4-10.3
2017-Jan-15 14:00N 47°36' W 052°42'0 0.0 200 / 21020.3 -7.0-12.5
2017-Jan-15 13:00N 47°36' W 052°42'0 0.0 220 / 31020.7 -8.2-12.6
2017-Jan-15 11:00N 47°36' W 052°42'0 0.0 220 / 31020.7 -8.4-12.7
2017-Jan-15 10:00N 47°36' W 052°42'0 0.0 210 / 31020.7 -8.4-12.8
2017-Jan-15 09:00N 47°36' W 052°42'0 0.0 240 / 51020.5 -9.0-13.2
2017-Jan-15 08:00N 47°36' W 052°42'0 0.0 240 / 41020.4 -8.6-13.1
2017-Jan-15 07:00N 47°36' W 052°42'0 0.0 240 / 41020.1 -8.6-13.9
2017-Jan-15 06:00N 47°36' W 052°42'0 0.0 260 / 61020.3 -8.7-14.3
2017-Jan-15 05:00N 47°36' W 052°42'0 0.0 270 / 51020.1 -9.5-15.8
2017-Jan-15 04:00N 47°36' W 052°42'0 0.0 260 / 91020.1 -9.5-15.7
2017-Jan-15 03:00N 47°36' W 052°42'0 0.0 280 / 101020.1 -9.8-16.4
2017-Jan-15 02:00N 47°36' W 052°42'0 0.0 280 / 101020.2 -10.4-17.0
2017-Jan-15 01:00N 47°36' W 052°42'0 0.0 280 / 81019.8 -10.5-17.2
2017-Jan-15 00:00N 47°36' W 052°42'0 0.0 280 / 121019.1 -10.5-17.6
2017-Jan-14 23:00N 47°36' W 052°42'0 0.0 270 / 111018.8 -9.9-16.8
2017-Jan-14 22:00N 47°36' W 052°42'0 0.0 260 / 91018.1 -10.0-16.9
2017-Jan-14 21:00N 47°36' W 052°42'0 0.0 290 / 101017.4 -9.6-17.3
2017-Jan-14 20:00N 47°36' W 052°42'0 0.0 270 / 101016.5 -9.1-17.2
2017-Jan-14 19:00N 47°36' W 052°42'0 0.0 270 / 111015.7 -8.5-16.7
2017-Jan-14 18:00N 47°36' W 052°42'0 0.0 290 / 131015.0 -8.7-16.7
2017-Jan-14 17:00N 47°36' W 052°42'0 0.0 270 / 161014.5 -8.5-16.8
2017-Jan-14 16:00N 47°36' W 052°42'0 0.0 270 / 141014.5 -8.2-17.1
2017-Jan-14 15:00N 47°36' W 052°42'0 0.0 260 / 161014.4 -7.7-16.8
2017-Jan-14 14:00N 47°36' W 052°42'0 0.0 270 / 151014.5 -7.6-17.3
2017-Jan-14 13:00N 47°36' W 052°42'0 0.0 270 / 161013.8 -7.8-16.1
2017-Jan-14 12:00N 47°36' W 052°42'0 0.0 270 / 151013.1 -7.9-16.1
2017-Jan-14 11:00N 47°36' W 052°42'0 0.0 280 / 151011.9 -7.9-16.1
2017-Jan-14 10:00N 47°36' W 052°42'0 0.0 270 / 121010.9 -7.5-16.4
2017-Jan-14 09:00N 47°36' W 052°42'0 0.0 270 / 171010.1 -6.6-16.1
2017-Jan-14 08:00N 47°36' W 052°42'0 0.0 260 / 151009.3 -5.8-13.8
2017-Jan-14 07:00N 47°36' W 052°42'0 0.0 270 / 151008.6 -5.4-14.8
2017-Jan-14 06:00N 47°36' W 052°42'0 0.0 270 / 151007.6 -3.6-10.1
2017-Jan-14 05:00N 47°36' W 052°42'0 0.0 270 / 141006.2 -1.2-6.7
2017-Jan-14 04:00N 47°36' W 052°42'0 0.0 260 / 181004.9 0.1-2.5
2017-Jan-14 03:00N 47°36' W 052°42'0 0.0 240 / 161004.5 2.2-2.0
2017-Jan-14 02:00N 47°36' W 052°42'0 0.0 240 / 91004.6 3.3 0.1
2017-Jan-14 01:00N 47°36' W 052°42'0 0.0 210 / 41004.8 4.1 1.0
2017-Jan-14 00:00N 47°36' W 052°42'0 0.0 240 / 91004.8 4.7 2.0
2017-Jan-13 23:00N 47°36' W 052°42'0 0.0 240 / 101005.0 5.4 3.2
2017-Jan-13 22:00N 47°36' W 052°42'0 0.0 230 / 71005.1 6.2 3.9
2017-Jan-13 21:00N 47°36' W 052°42'0 0.0 230 / 61005.2 5.9 4.9
2017-Jan-13 20:00N 47°36' W 052°42'0 0.0 220 / 41005.3 6.3 5.6
2017-Jan-13 19:00N 47°36' W 052°42'0 0.0 210 / 61005.7 6.3 5.7
2017-Jan-13 18:00N 47°36' W 052°42'0 0.0 220 / 71005.8 7.0 6.2
2017-Jan-13 17:00N 47°36' W 052°42'0 0.0 220 / 71006.2 7.4 6.5
2017-Jan-13 16:00N 47°36' W 052°42'0 0.0 220 / 71006.9 7.8 6.8
2017-Jan-13 15:00N 47°36' W 052°42'0 0.0 210 / 111007.4 8.4 7.3
2017-Jan-13 14:00N 47°36' W 052°42'0 0.0 220 / 121008.4 9.2 8.0
2017-Jan-13 13:00N 47°36' W 052°42'0 0.0 200 / 91009.5 8.3 7.7
2017-Jan-13 12:00N 47°36' W 052°42'0 0.0 200 / 71010.5 8.3 7.4
2017-Jan-13 11:00N 47°36' W 052°42'0 0.0 200 / 81011.7 7.5 6.6
2017-Jan-13 10:00N 47°36' W 052°42'0 0.0 190 / 61013.4 6.9 6.1
2017-Jan-13 09:00N 47°36' W 052°42'0 0.0 190 / 61014.7 6.7 5.7
2017-Jan-13 08:00N 47°36' W 052°42'0 0.0 180 / 41016.2 6.1 5.0
2017-Jan-13 07:00N 47°36' W 052°42'0 0.0 190 / 31017.9 6.0 4.9
2017-Jan-13 06:00N 47°36' W 052°42'0 0.0 180 / 21019.7 4.3 2.4
2017-Jan-13 05:00N 47°36' W 052°42'0 0.0 180 / 11021.1 4.1 1.6
2017-Jan-13 03:00N 47°36' W 052°42'0 0.0 190 / 31024.0 3.8 1.5
2017-Jan-13 02:00N 47°36' W 052°42'0 0.0 220 / 81025.5 4.2 2.5
2017-Jan-13 01:00N 47°36' W 052°42'0 0.0 190 / 51026.5 2.6 1.8
2017-Jan-13 00:00N 47°36' W 052°42'0 0.0 210 / 61027.5 3.2 2.4
2017-Jan-12 23:00N 47°36' W 052°42'0 0.0 190 / 11028.0 3.0 2.0
2017-Jan-12 22:00N 47°36' W 052°42'0 0.0 110 / 31028.4 2.8 1.6
2017-Jan-12 21:00N 47°36' W 052°42'0 0.0 120 / 31029.5 2.8 1.0
2017-Jan-12 20:00N 47°36' W 052°42'0 0.0 110 / 91030.2 1.8 0.5
2017-Jan-12 19:00N 47°36' W 052°42'0 0.0 110 / 21030.9 3.3 1.0
2017-Jan-12 18:00N 47°36' W 052°42'0 0.0 110 / 81030.8 3.0 1.0
2017-Jan-12 17:00N 47°36' W 052°42'0 0.0 190 / 41031.6 3.8 1.2
2017-Jan-12 16:00N 47°36' W 052°42'0 0.0 190 / 51032.5 3.3 0.9
2017-Jan-12 15:00N 47°36' W 052°42'0 0.0 200 / 41033.3 2.4 0.2
2017-Jan-12 14:00N 47°36' W 052°42'0 0.0 190 / 51033.6 1.3-0.6
2017-Jan-12 13:00N 47°36' W 052°42'0 0.0 200 / 31033.5 0.8-1.1
2017-Jan-12 12:00N 47°36' W 052°42'0 0.0 220 / 31033.3 0.3-1.3
2017-Jan-12 11:00N 47°36' W 052°42'0 0.0 240 / 51033.4 -0.0-1.6
2017-Jan-12 10:00N 47°36' W 052°42'0 0.0 250 / 31033.6 -0.4-1.9
2017-Jan-12 09:00N 47°36' W 052°42'0 0.0 200 / 21033.9 -0.8-2.4
2017-Jan-12 08:00N 47°36' W 052°42'0 0.0 220 / 31034.3 -1.2-2.6
2017-Jan-12 07:00N 47°36' W 052°42'0 0.0 210 / 51034.7 -1.7-2.3
2017-Jan-12 06:00N 47°36' W 052°42'0 0.0 190 / 71035.1 -1.0-3.4
2017-Jan-12 04:00N 47°36' W 052°42'0 0.0 190 / 31035.5 -1.3-3.8
2017-Jan-12 03:00N 47°36' W 052°42'0 0.0 190 / 21036.6 -2.0-4.1
2017-Jan-12 02:00N 47°36' W 052°42'0 0.0 310 / 21037.5 -1.7-4.0
2017-Jan-12 01:00N 47°36' W 052°42'0 0.0 210 / 11038.2 -1.8-4.1
2017-Jan-12 00:00N 47°36' W 052°42'0 0.0 180 / 21038.6 -1.4-4.1
2017-Jan-11 23:00N 47°36' W 052°42'0 0.0 200 / 21038.9 -1.6-4.2
2017-Jan-11 22:00N 47°36' W 052°42'0 0.0 190 / 11039.2 -1.7-4.4
2017-Jan-11 21:00N 47°36' W 052°42'0 0.0 120 / 21039.7 -1.6-4.8
2017-Jan-11 20:00N 47°36' W 052°42'0 0.0 150 / 11040.5 -1.2-4.9
2017-Jan-11 18:00N 47°36' W 052°42'0 0.0 110 / 31041.3 0.4-4.6
2017-Jan-11 12:00N 47°36' W 052°42'0 0.0 1045.9 -8.2-9.9
2017-Jan-11 06:00N 47°36' W 052°42'0 0.0 1047.1 -7.7-9.6
2017-Jan-11 00:00N 47°36' W 052°42'0 0.0 200 / 21047.3 -7.1-10.3
2017-Jan-10 18:00N 47°36' W 052°42'0 0.0 260 / 51045.4 -4.3-11.0
2017-Jan-10 06:00N 47°36' W 052°42'0 0.0 280 / 101035.4 -8.7-14.6
2017-Jan-10 00:00N 47°36' W 052°42'   270 / 81025.3 -4.2-8.8
Track history (hours):
 
Tides and Currents Weather Stations Pressure Air Temp Water Temp Dewpoint Dewpoint Depression Visibility Wind Speed Wind Dir Waves Ship Positions

Oceanographic research ship CCGS Louis S. St-Laurent (Canada)

Detailed information on ship capabilities available from ARCUS's ALIAS (Arctic Logistics Information and Support) project.

Last reported at 2017-Jan-19 20:00 UTC. Time now 2017-Jan-19 21:25 UTC.
Position N 47°36' W 052°42'.

Length 119.63 m; beam 24.38 m; draft 9.9 m.

MMSI: 316165000.

Wind from 100 at 1 knots

Barometer 1019.8 mb
Air temperature -1.0 ° C
Dewpoint -5.0 ° C

Date/timePositionNaut miles runAvg speedWind from/ knotsBaromVisibWave heightAir tempDewpointWater temp
2017-Jan-19 20:00N 47°36' W 052°42'0 0.0 100 / 11019.8 -1.0-5.0
2017-Jan-19 19:00N 47°36' W 052°42'0 0.0 110 / 51020.0 -1.8-5.8
2017-Jan-19 18:00N 47°36' W 052°42'0 0.0 120 / 41019.8 -1.8-5.9
2017-Jan-19 17:00N 47°36' W 052°42'0 0.0 110 / 51020.1 -1.9-5.9
2017-Jan-19 16:00N 47°36' W 052°42'0 0.0 180 / 21020.3 -0.0-6.0
2017-Jan-19 15:00N 47°36' W 052°42'0 0.0 070 / 11021.0 -1.5-5.5
2017-Jan-19 14:00N 47°36' W 052°42'0 0.0 190 / 11021.7 -3.0-6.1
2017-Jan-19 13:00N 47°36' W 052°42'0 0.0 1021.7 -5.7-7.3
2017-Jan-19 12:00N 47°36' W 052°42'0 0.0 1021.7 -5.6-7.2
2017-Jan-19 11:00N 47°36' W 052°42'0 0.0 090 / 11021.4 -5.2-6.4
2017-Jan-19 10:00N 47°36' W 052°42'0 0.0 270 / 11021.1 -4.2-6.0
2017-Jan-19 09:00N 47°36' W 052°42'0 0.0 1020.8 -3.3-5.3
2017-Jan-19 08:00N 47°36' W 052°42'0 0.0 320 / 41021.0 -3.2-5.2
2017-Jan-19 07:00N 47°36' W 052°42'0 0.0 320 / 31020.9 -2.9-4.9
2017-Jan-19 06:00N 47°36' W 052°42'0 0.0 310 / 41020.5 -2.7-4.8
2017-Jan-19 05:00N 47°36' W 052°42'0 0.0 310 / 41020.3 -2.4-4.7
2017-Jan-19 04:00N 47°36' W 052°42'0 0.0 310 / 41020.3 -2.2-4.3
2017-Jan-19 03:00N 47°36' W 052°42'0 0.0 310 / 31020.3 -2.0-4.2
2017-Jan-19 02:00N 47°36' W 052°42'0 0.0 310 / 31020.5 -1.9-4.1
2017-Jan-19 01:00N 47°36' W 052°42'0 0.0 340 / 41020.4 -1.5-3.8
2017-Jan-19 00:00N 47°36' W 052°42'0 0.0 340 / 51020.2 -1.1-3.6
2017-Jan-18 23:00N 47°36' W 052°42'0 0.0 360 / 31019.7 -0.8-3.8
2017-Jan-18 22:00N 47°36' W 052°42'0 0.0 350 / 41019.2 -0.7-4.1
2017-Jan-18 21:00N 47°36' W 052°42'0 0.0 330 / 61019.0 -1.2-3.5
2017-Jan-18 20:00N 47°36' W 052°42'0 0.0 360 / 41018.6 -0.8-4.2
2017-Jan-18 18:00N 47°36' W 052°42'0 0.0 010 / 51017.0 -0.0-4.0
2017-Jan-18 17:00N 47°36' W 052°42'0 0.0 360 / 51016.3 0.1-3.1
2017-Jan-18 16:00N 47°36' W 052°42'0 0.0 360 / 61015.9 0.3-3.2
2017-Jan-18 15:00N 47°36' W 052°42'0 0.0 350 / 51015.2 0.2-2.2
2017-Jan-18 14:00N 47°36' W 052°42'0 0.0 360 / 51015.3 -1.0-1.9
2017-Jan-18 13:00N 47°36' W 052°42'0 0.0 030 / 21015.0 -1.2-2.7
2017-Jan-18 12:00N 47°36' W 052°42'0 0.0 090 / 41013.5 -1.9-2.8
2017-Jan-18 11:00N 47°36' W 052°42'0 0.0 300 / 21011.7 -2.9-3.9
2017-Jan-18 10:00N 47°36' W 052°42'0 0.0 270 / 41010.7 -3.5-6.4
2017-Jan-18 09:00N 47°36' W 052°42'0 0.0 320 / 61010.2 -3.1-6.2
2017-Jan-18 08:00N 47°36' W 052°42'0 0.0 290 / 41009.8 -3.7-6.0
2017-Jan-18 07:00N 47°36' W 052°42'0 0.0 320 / 41009.4 -4.0-6.0
2017-Jan-18 06:00N 47°36' W 052°42'0 0.0 300 / 51008.6 -4.2-6.1
2017-Jan-18 05:00N 47°36' W 052°42'0 0.0 310 / 51007.9 -3.9-5.7
2017-Jan-18 04:00N 47°36' W 052°42'0 0.0 270 / 31008.0 -4.3-6.0
2017-Jan-18 03:00N 47°36' W 052°42'0 0.0 280 / 41008.4 -5.2-7.0
2017-Jan-18 02:00N 47°36' W 052°42'0 0.0 260 / 31008.6 -5.8-7.9
2017-Jan-18 01:00N 47°36' W 052°42'0 0.0 260 / 41008.7 -5.6-8.1
2017-Jan-18 00:00N 47°36' W 052°42'0 0.0 260 / 41008.7 -5.0-7.0
2017-Jan-17 23:00N 47°36' W 052°42'0 0.0 250 / 41008.8 -5.1-7.9
2017-Jan-17 22:00N 47°36' W 052°42'0 0.0 270 / 41008.4 -4.4-8.4
2017-Jan-17 21:00N 47°36' W 052°42'0 0.0 280 / 41008.2 -3.1-7.3
2017-Jan-17 20:00N 47°36' W 052°42'0 0.0 280 / 41007.7 -2.0-5.0
2017-Jan-17 19:00N 47°36' W 052°42'0 0.0 310 / 41007.3 -1.4-3.7
2017-Jan-17 18:00N 47°36' W 052°42'0 0.0 270 / 61007.0 -0.7-3.1
2017-Jan-17 17:00N 47°36' W 052°42'0 0.0 260 / 81007.1 -0.0-3.8
2017-Jan-17 16:00N 47°36' W 052°42'0 0.0 220 / 51007.7 -0.0-2.7
2017-Jan-17 15:00N 47°36' W 052°42'0 0.0 200 / 41008.7 -1.3-2.1
2017-Jan-17 14:00N 47°36' W 052°42'0 0.0 140 / 11009.2 -0.6-2.0
2017-Jan-17 13:00N 47°36' W 052°42'0 0.0 180 / 21010.6 -1.6-3.2
2017-Jan-17 12:00N 47°36' W 052°42'0 0.0 200 / 21011.9 -2.2-4.5
2017-Jan-17 11:00N 47°36' W 052°42'0 0.0 210 / 11013.0 -3.0-5.5
2017-Jan-17 10:00N 47°36' W 052°42'0 0.0 210 / 21014.2 -3.8-6.1
2017-Jan-17 09:00N 47°36' W 052°42'0 0.0 210 / 11015.6 -5.1-7.5
2017-Jan-17 08:00N 47°36' W 052°42'0 0.0 210 / 11016.3 -6.1-8.3
2017-Jan-17 07:00N 47°36' W 052°42'0 0.0 240 / 11017.9 -10.0-12.4
2017-Jan-17 06:00N 47°36' W 052°42'0 0.0 200 / 21018.8 -12.2-15.1
2017-Jan-17 05:00N 47°36' W 052°42'0 0.0 200 / 31019.8 -12.5-15.0
2017-Jan-17 03:00N 47°36' W 052°42'0 0.0 230 / 61021.4 -12.5-15.8
2017-Jan-17 02:00N 47°36' W 052°42'0 0.0 220 / 31022.0 -12.8-15.4
2017-Jan-17 01:00N 47°36' W 052°42'0 0.0 240 / 51022.3 -12.0-14.5
2017-Jan-17 00:00N 47°36' W 052°42'0 0.0 190 / 41022.5 -10.1-12.6
2017-Jan-16 23:00N 47°36' W 052°42'0 0.0 280 / 31022.8 -9.7-14.0
2017-Jan-16 22:00N 47°36' W 052°42'0 0.0 270 / 51022.9 -9.4-13.4
2017-Jan-16 21:00N 47°36' W 052°42'0 0.0 290 / 41022.9 -9.4-13.3
2017-Jan-16 20:00N 47°36' W 052°42'0 0.0 280 / 51022.5 -9.1-13.3
2017-Jan-16 19:00N 47°36' W 052°42'0 0.0 310 / 71021.5 -8.7-13.5
2017-Jan-16 18:00N 47°36' W 052°42'0 0.0 330 / 91021.0 -8.5-13.1
2017-Jan-16 17:00N 47°36' W 052°42'0 0.0 310 / 81020.4 -8.5-12.5
2017-Jan-16 16:00N 47°36' W 052°42'0 0.0 320 / 81020.5 -8.4-12.7
2017-Jan-16 15:00N 47°36' W 052°42'0 0.0 320 / 101020.4 -8.4-12.1
2017-Jan-16 14:00N 47°36' W 052°42'0 0.0 320 / 81020.3 -8.1-12.3
2017-Jan-16 13:00N 47°36' W 052°42'0 0.0 320 / 81019.6 -8.5-11.9
2017-Jan-16 12:00N 47°36' W 052°42'0 0.0 320 / 91019.0 -8.5-11.6
2017-Jan-16 11:00N 47°36' W 052°42'0 0.0 320 / 81017.9 -8.2-11.2
2017-Jan-16 10:00N 47°36' W 052°42'0 0.0 310 / 101016.6 -7.5-10.0
2017-Jan-16 09:00N 47°36' W 052°42'0 0.0 320 / 111015.1 -6.5-8.0
2017-Jan-16 08:00N 47°36' W 052°42'0 0.0 320 / 131014.0 -5.6-6.8
2017-Jan-16 07:00N 47°36' W 052°42'0 0.0 320 / 111012.7 -5.9-6.4
2017-Jan-16 06:00N 47°36' W 052°42'0 0.0 330 / 141011.5 -5.6-6.0
2017-Jan-16 05:00N 47°36' W 052°42'0 0.0 340 / 111010.1 -4.6-4.9
2017-Jan-16 04:00N 47°36' W 052°42'0 0.0 060 / 21010.1 -3.8-4.0
2017-Jan-16 03:00N 47°36' W 052°42'0 0.0 080 / 41011.2 -3.0-3.2
2017-Jan-16 02:00N 47°36' W 052°42'0 0.0 070 / 31012.4 -3.4-3.8
2017-Jan-16 01:00N 47°36' W 052°42'0 0.0 030 / 31013.2 -4.1-5.1
2017-Jan-16 00:00N 47°36' W 052°42'0 0.0 360 / 31014.7 -4.7-5.8
2017-Jan-15 23:00N 47°36' W 052°42'0 0.0 240 / 11015.6 -4.6-6.0
2017-Jan-15 22:00N 47°36' W 052°42'0 0.0 240 / 21016.1 -4.5-6.6
2017-Jan-15 21:00N 47°36' W 052°42'0 0.0 200 / 11016.4 -4.1-6.7
2017-Jan-15 20:00N 47°36' W 052°42'0 0.0 200 / 31016.3 -3.7-6.7
2017-Jan-15 19:00N 47°36' W 052°42'0 0.0 190 / 31016.6 -4.0-6.9
2017-Jan-15 18:00N 47°36' W 052°42'0 0.0 220 / 71016.6 -3.9-8.8
2017-Jan-15 17:00N 47°36' W 052°42'0 0.0 190 / 61016.8 -3.8-7.8
2017-Jan-15 16:00N 47°36' W 052°42'0 0.0 210 / 31017.9 -4.8-8.0
2017-Jan-15 15:00N 47°36' W 052°42'0 0.0 130 / 21019.0 -5.4-10.3
2017-Jan-15 14:00N 47°36' W 052°42'0 0.0 200 / 21020.3 -7.0-12.5
2017-Jan-15 13:00N 47°36' W 052°42'0 0.0 220 / 31020.7 -8.2-12.6
2017-Jan-15 11:00N 47°36' W 052°42'0 0.0 220 / 31020.7 -8.4-12.7
2017-Jan-15 10:00N 47°36' W 052°42'0 0.0 210 / 31020.7 -8.4-12.8
2017-Jan-15 09:00N 47°36' W 052°42'0 0.0 240 / 51020.5 -9.0-13.2
2017-Jan-15 08:00N 47°36' W 052°42'0 0.0 240 / 41020.4 -8.6-13.1
2017-Jan-15 07:00N 47°36' W 052°42'0 0.0 240 / 41020.1 -8.6-13.9
2017-Jan-15 06:00N 47°36' W 052°42'0 0.0 260 / 61020.3 -8.7-14.3
2017-Jan-15 05:00N 47°36' W 052°42'0 0.0 270 / 51020.1 -9.5-15.8
2017-Jan-15 04:00N 47°36' W 052°42'0 0.0 260 / 91020.1 -9.5-15.7
2017-Jan-15 03:00N 47°36' W 052°42'0 0.0 280 / 101020.1 -9.8-16.4
2017-Jan-15 02:00N 47°36' W 052°42'0 0.0 280 / 101020.2 -10.4-17.0
2017-Jan-15 01:00N 47°36' W 052°42'0 0.0 280 / 81019.8 -10.5-17.2
2017-Jan-15 00:00N 47°36' W 052°42'0 0.0 280 / 121019.1 -10.5-17.6
2017-Jan-14 23:00N 47°36' W 052°42'0 0.0 270 / 111018.8 -9.9-16.8
2017-Jan-14 22:00N 47°36' W 052°42'0 0.0 260 / 91018.1 -10.0-16.9
2017-Jan-14 21:00N 47°36' W 052°42'0 0.0 290 / 101017.4 -9.6-17.3
2017-Jan-14 20:00N 47°36' W 052°42'0 0.0 270 / 101016.5 -9.1-17.2
2017-Jan-14 19:00N 47°36' W 052°42'0 0.0 270 / 111015.7 -8.5-16.7
2017-Jan-14 18:00N 47°36' W 052°42'0 0.0 290 / 131015.0 -8.7-16.7
2017-Jan-14 17:00N 47°36' W 052°42'0 0.0 270 / 161014.5 -8.5-16.8
2017-Jan-14 16:00N 47°36' W 052°42'0 0.0 270 / 141014.5 -8.2-17.1
2017-Jan-14 15:00N 47°36' W 052°42'0 0.0 260 / 161014.4 -7.7-16.8
2017-Jan-14 14:00N 47°36' W 052°42'0 0.0 270 / 151014.5 -7.6-17.3
2017-Jan-14 13:00N 47°36' W 052°42'0 0.0 270 / 161013.8 -7.8-16.1
2017-Jan-14 12:00N 47°36' W 052°42'0 0.0 270 / 151013.1 -7.9-16.1
2017-Jan-14 11:00N 47°36' W 052°42'0 0.0 280 / 151011.9 -7.9-16.1
2017-Jan-14 10:00N 47°36' W 052°42'0 0.0 270 / 121010.9 -7.5-16.4
2017-Jan-14 09:00N 47°36' W 052°42'0 0.0 270 / 171010.1 -6.6-16.1
2017-Jan-14 08:00N 47°36' W 052°42'0 0.0 260 / 151009.3 -5.8-13.8
2017-Jan-14 07:00N 47°36' W 052°42'0 0.0 270 / 151008.6 -5.4-14.8
2017-Jan-14 06:00N 47°36' W 052°42'0 0.0 270 / 151007.6 -3.6-10.1
2017-Jan-14 05:00N 47°36' W 052°42'0 0.0 270 / 141006.2 -1.2-6.7
2017-Jan-14 04:00N 47°36' W 052°42'0 0.0 260 / 181004.9 0.1-2.5
2017-Jan-14 03:00N 47°36' W 052°42'0 0.0 240 / 161004.5 2.2-2.0
2017-Jan-14 02:00N 47°36' W 052°42'0 0.0 240 / 91004.6 3.3 0.1
2017-Jan-14 01:00N 47°36' W 052°42'0 0.0 210 / 41004.8 4.1 1.0
2017-Jan-14 00:00N 47°36' W 052°42'0 0.0 240 / 91004.8 4.7 2.0
2017-Jan-13 23:00N 47°36' W 052°42'0 0.0 240 / 101005.0 5.4 3.2
2017-Jan-13 22:00N 47°36' W 052°42'0 0.0 230 / 71005.1 6.2 3.9
2017-Jan-13 21:00N 47°36' W 052°42'0 0.0 230 / 61005.2 5.9 4.9
2017-Jan-13 20:00N 47°36' W 052°42'0 0.0 220 / 41005.3 6.3 5.6
2017-Jan-13 19:00N 47°36' W 052°42'0 0.0 210 / 61005.7 6.3 5.7
2017-Jan-13 18:00N 47°36' W 052°42'0 0.0 220 / 71005.8 7.0 6.2
2017-Jan-13 17:00N 47°36' W 052°42'0 0.0 220 / 71006.2 7.4 6.5
2017-Jan-13 16:00N 47°36' W 052°42'0 0.0 220 / 71006.9 7.8 6.8
2017-Jan-13 15:00N 47°36' W 052°42'0 0.0 210 / 111007.4 8.4 7.3
2017-Jan-13 14:00N 47°36' W 052°42'0 0.0 220 / 121008.4 9.2 8.0
2017-Jan-13 13:00N 47°36' W 052°42'0 0.0 200 / 91009.5 8.3 7.7
2017-Jan-13 12:00N 47°36' W 052°42'0 0.0 200 / 71010.5 8.3 7.4
2017-Jan-13 11:00N 47°36' W 052°42'0 0.0 200 / 81011.7 7.5 6.6
2017-Jan-13 10:00N 47°36' W 052°42'0 0.0 190 / 61013.4 6.9 6.1
2017-Jan-13 09:00N 47°36' W 052°42'0 0.0 190 / 61014.7 6.7 5.7
2017-Jan-13 08:00N 47°36' W 052°42'0 0.0 180 / 41016.2 6.1 5.0
2017-Jan-13 07:00N 47°36' W 052°42'0 0.0 190 / 31017.9 6.0 4.9
2017-Jan-13 06:00N 47°36' W 052°42'0 0.0 180 / 21019.7 4.3 2.4
2017-Jan-13 05:00N 47°36' W 052°42'0 0.0 180 / 11021.1 4.1 1.6
2017-Jan-13 03:00N 47°36' W 052°42'0 0.0 190 / 31024.0 3.8 1.5
2017-Jan-13 02:00N 47°36' W 052°42'0 0.0 220 / 81025.5 4.2 2.5
2017-Jan-13 01:00N 47°36' W 052°42'0 0.0 190 / 51026.5 2.6 1.8
2017-Jan-13 00:00N 47°36' W 052°42'0 0.0 210 / 61027.5 3.2 2.4
2017-Jan-12 23:00N 47°36' W 052°42'0 0.0 190 / 11028.0 3.0 2.0
2017-Jan-12 22:00N 47°36' W 052°42'0 0.0 110 / 31028.4 2.8 1.6
2017-Jan-12 21:00N 47°36' W 052°42'0 0.0 120 / 31029.5 2.8 1.0
2017-Jan-12 20:00N 47°36' W 052°42'0 0.0 110 / 91030.2 1.8 0.5
2017-Jan-12 19:00N 47°36' W 052°42'0 0.0 110 / 21030.9 3.3 1.0
2017-Jan-12 18:00N 47°36' W 052°42'0 0.0 110 / 81030.8 3.0 1.0
2017-Jan-12 17:00N 47°36' W 052°42'0 0.0 190 / 41031.6 3.8 1.2
2017-Jan-12 16:00N 47°36' W 052°42'0 0.0 190 / 51032.5 3.3 0.9
2017-Jan-12 15:00N 47°36' W 052°42'0 0.0 200 / 41033.3 2.4 0.2
2017-Jan-12 14:00N 47°36' W 052°42'0 0.0 190 / 51033.6 1.3-0.6
2017-Jan-12 13:00N 47°36' W 052°42'0 0.0 200 / 31033.5 0.8-1.1
2017-Jan-12 12:00N 47°36' W 052°42'0 0.0 220 / 31033.3 0.3-1.3
2017-Jan-12 11:00N 47°36' W 052°42'0 0.0 240 / 51033.4 -0.0-1.6
2017-Jan-12 10:00N 47°36' W 052°42'0 0.0 250 / 31033.6 -0.4-1.9
2017-Jan-12 09:00N 47°36' W 052°42'0 0.0 200 / 21033.9 -0.8-2.4
2017-Jan-12 08:00N 47°36' W 052°42'0 0.0 220 / 31034.3 -1.2-2.6
2017-Jan-12 07:00N 47°36' W 052°42'0 0.0 210 / 51034.7 -1.7-2.3
2017-Jan-12 06:00N 47°36' W 052°42'0 0.0 190 / 71035.1 -1.0-3.4
2017-Jan-12 04:00N 47°36' W 052°42'0 0.0 190 / 31035.5 -1.3-3.8
2017-Jan-12 03:00N 47°36' W 052°42'0 0.0 190 / 21036.6 -2.0-4.1
2017-Jan-12 02:00N 47°36' W 052°42'0 0.0 310 / 21037.5 -1.7-4.0
2017-Jan-12 01:00N 47°36' W 052°42'0 0.0 210 / 11038.2 -1.8-4.1
2017-Jan-12 00:00N 47°36' W 052°42'0 0.0 180 / 21038.6 -1.4-4.1
2017-Jan-11 23:00N 47°36' W 052°42'0 0.0 200 / 21038.9 -1.6-4.2
2017-Jan-11 22:00N 47°36' W 052°42'0 0.0 190 / 11039.2 -1.7-4.4
2017-Jan-11 21:00N 47°36' W 052°42'0 0.0 120 / 21039.7 -1.6-4.8
2017-Jan-11 20:00N 47°36' W 052°42'0 0.0 150 / 11040.5 -1.2-4.9
2017-Jan-11 18:00N 47°36' W 052°42'0 0.0 110 / 31041.3 0.4-4.6
2017-Jan-11 12:00N 47°36' W 052°42'0 0.0 1045.9 -8.2-9.9
2017-Jan-11 06:00N 47°36' W 052°42'0 0.0 1047.1 -7.7-9.6
2017-Jan-11 00:00N 47°36' W 052°42'0 0.0 200 / 21047.3 -7.1-10.3
2017-Jan-10 18:00N 47°36' W 052°42'0 0.0 260 / 51045.4 -4.3-11.0
2017-Jan-10 06:00N 47°36' W 052°42'0 0.0 280 / 101035.4 -8.7-14.6
2017-Jan-10 00:00N 47°36' W 052°42'   270 / 81025.3 -4.2-8.8

Dump ship's entire track history